CheckWX is a tool to help pilots better visualize weather data.  It is not intended as a substitute for an official pre-flight weather briefing.

09:16:39 UTC

LGAV METAR
Eleftherios Venizelos International Airport
Athens, Greece
Current

27 mins ago

LGAV 220850Z 01009KT CAVOK 11/M02 Q1032 NOSIG
Observed
Jan-22 @ 08:50 UTC
Wind
  • 010° at 9 KTS
Visibility
10,000+ meters
Flight Rules
VFR
Cloud Levels
  • Clear skies
Temperature
11°C / 52°F
Dewpoint
-2°C / 28°F
Humidity
41%
Altimeter
30.47" Hg
Pressure
1031.92 hPa
Previous

57 mins ago

LGAV 220820Z 01007KT CAVOK 10/M02 Q1032 NOSIG
Observed
Jan-22 @ 08:20 UTC
Wind
  • 010° at 7 KTS
Visibility
10,000+ meters
Flight Rules
VFR
Cloud Levels
  • Clear skies
Temperature
10°C / 50°F
Dewpoint
-2°C / 28°F
Humidity
43%
Altimeter
30.47" Hg
Pressure
1031.92 hPa
Previous

1 hour ago

LGAV 220750Z 01007KT CAVOK 09/M01 Q1032 NOSIG
Observed
Jan-22 @ 07:50 UTC
Wind
  • 010° at 7 KTS
Visibility
10,000+ meters
Flight Rules
VFR
Cloud Levels
  • Clear skies
Temperature
C / 48°F
Dewpoint
-1°C / 30°F
Humidity
50%
Altimeter
30.47" Hg
Pressure
1031.92 hPa